createdAt,value
2023-02-25T00:00:16.579Z,3.67
2023-02-25T00:01:17.065Z,3.64
2023-02-25T00:02:16.422Z,3.62
2023-02-25T00:03:17.087Z,3.67
2023-02-25T00:04:16.698Z,3.61
2023-02-25T00:05:17.191Z,3.61
2023-02-25T00:06:16.702Z,3.61
2023-02-25T00:07:17.202Z,3.61
2023-02-25T00:08:16.703Z,3.65
2023-02-25T00:09:17.202Z,3.64
2023-02-25T00:10:16.686Z,3.64
2023-02-25T00:11:17.246Z,3.64
2023-02-25T00:12:16.481Z,3.62
2023-02-25T00:13:18.300Z,3.55
2023-02-25T00:14:17.159Z,3.55
2023-02-25T00:15:16.699Z,3.54
2023-02-25T00:16:17.352Z,3.61
2023-02-25T00:17:16.976Z,3.72
2023-02-25T00:18:16.500Z,3.77
2023-02-25T00:19:17.027Z,3.64
2023-02-25T00:20:16.532Z,3.62
2023-02-25T00:21:17.020Z,3.60
2023-02-25T00:22:16.687Z,3.61
2023-02-25T00:23:17.190Z,3.57
2023-02-25T00:24:17.208Z,3.60
2023-02-25T00:25:16.786Z,3.60
2023-02-25T00:26:16.324Z,3.67
2023-02-25T00:27:16.808Z,3.62
2023-02-25T00:28:17.298Z,3.62
2023-02-25T00:29:16.835Z,3.64
2023-02-25T00:30:16.341Z,3.67
2023-02-25T00:31:16.963Z,3.68
2023-02-25T00:32:17.426Z,3.71
2023-02-25T00:33:16.383Z,3.72
2023-02-25T00:34:16.858Z,3.78
2023-02-25T00:35:16.343Z,3.68
2023-02-25T00:36:16.820Z,3.67
2023-02-25T00:37:17.336Z,3.69
2023-02-25T00:38:16.948Z,3.72
2023-02-25T00:39:16.463Z,3.71
2023-02-25T00:40:17.022Z,3.68
2023-02-25T00:41:16.493Z,3.68
2023-02-25T00:42:16.505Z,3.67
2023-02-25T00:43:17.045Z,3.78
2023-02-25T00:44:16.559Z,3.72
2023-02-25T00:45:17.063Z,3.72
2023-02-25T00:46:16.704Z,3.74
2023-02-25T00:47:17.295Z,3.74
2023-02-25T00:48:16.816Z,3.74
2023-02-25T00:49:30.554Z,3.71
2023-02-25T00:50:17.056Z,3.71
2023-02-25T00:51:16.568Z,3.74
2023-02-25T00:52:16.870Z,3.74
2023-02-25T00:53:16.366Z,3.69
2023-02-25T00:54:16.882Z,3.71
2023-02-25T00:55:16.409Z,3.71
2023-02-25T00:56:16.903Z,3.68
2023-02-25T00:57:16.388Z,3.69
2023-02-25T00:58:16.872Z,3.75
2023-02-25T00:59:16.378Z,3.72
2023-02-25T01:00:16.907Z,3.78
2023-02-25T01:01:16.423Z,3.79
2023-02-25T01:02:17.079Z,3.78
2023-02-25T01:03:16.584Z,3.74
2023-02-25T01:04:17.077Z,3.69
2023-02-25T01:05:16.878Z,3.67
2023-02-25T01:06:16.458Z,3.68
2023-02-25T01:07:16.333Z,3.69
2023-02-25T01:08:16.841Z,3.68
2023-02-25T01:09:16.328Z,3.64
2023-02-25T01:10:16.875Z,3.64
2023-02-25T01:11:16.381Z,3.64
2023-02-25T01:12:16.850Z,3.64
2023-02-25T01:13:16.357Z,3.64
2023-02-25T01:14:16.875Z,3.61
2023-02-25T01:15:16.406Z,3.61
2023-02-25T01:16:16.976Z,3.60
2023-02-25T01:17:16.587Z,3.64
2023-02-25T01:18:17.119Z,3.61
2023-02-25T01:19:16.640Z,3.55
2023-02-25T01:20:17.161Z,3.53
2023-02-25T01:21:16.651Z,3.50
2023-02-25T01:22:16.350Z,3.51
2023-02-25T01:23:16.869Z,3.54
2023-02-25T01:24:16.396Z,3.58
2023-02-25T01:25:16.918Z,3.58
2023-02-25T01:26:16.425Z,3.51
2023-02-25T01:27:16.975Z,3.55
2023-02-25T01:28:16.477Z,3.55
2023-02-25T01:29:16.981Z,3.53
2023-02-25T01:30:16.553Z,3.53
2023-02-25T01:31:17.103Z,3.53
2023-02-25T01:32:16.500Z,3.50
2023-02-25T01:33:17.204Z,3.50
2023-02-25T01:34:16.670Z,3.50
2023-02-25T01:35:17.168Z,3.49
2023-02-25T01:36:16.668Z,3.43
2023-02-25T01:37:17.196Z,3.44
2023-02-25T01:38:16.693Z,3.43
2023-02-25T01:39:17.212Z,3.43
2023-02-25T01:40:16.749Z,3.37
2023-02-25T01:41:17.244Z,3.37
2023-02-25T01:42:16.742Z,3.39
2023-02-25T01:43:17.258Z,3.37
2023-02-25T01:44:16.746Z,3.39
2023-02-25T01:45:17.255Z,3.40
2023-02-25T01:46:16.771Z,3.37
2023-02-25T01:47:16.312Z,3.43
2023-02-25T01:48:16.807Z,3.40
2023-02-25T01:49:17.329Z,3.34
2023-02-25T01:50:16.833Z,3.30
2023-02-25T01:51:16.357Z,3.31
2023-02-25T01:52:16.686Z,3.28
2023-02-25T01:53:17.180Z,3.27
2023-02-25T01:54:16.675Z,3.28
2023-02-25T01:55:17.194Z,3.27
2023-02-25T01:56:16.792Z,3.26
2023-02-25T01:57:17.300Z,3.26
2023-02-25T01:58:16.786Z,3.26
2023-02-25T01:59:16.332Z,3.24
2023-02-25T02:00:16.844Z,3.23
2023-02-25T02:01:16.338Z,3.16
2023-02-25T02:02:16.584Z,3.15
2023-02-25T02:03:17.288Z,3.13
2023-02-25T02:04:16.777Z,3.23
2023-02-25T02:05:17.277Z,3.20
2023-02-25T02:06:16.795Z,3.20
2023-02-25T02:07:17.314Z,3.26
2023-02-25T02:08:16.863Z,3.22
2023-02-25T02:09:16.361Z,3.20
2023-02-25T02:10:16.865Z,3.15
2023-02-25T02:11:16.349Z,3.13
2023-02-25T02:12:16.921Z,3.13
2023-02-25T02:13:16.428Z,3.13
2023-02-25T02:14:16.950Z,3.09
2023-02-25T02:15:16.497Z,3.10
2023-02-25T02:16:17.080Z,3.12
2023-02-25T02:17:16.645Z,3.12
2023-02-25T02:18:17.181Z,3.15
2023-02-25T02:19:16.725Z,3.19
2023-02-25T02:20:17.238Z,3.17
2023-02-25T02:21:16.724Z,3.13
2023-02-25T02:22:17.336Z,3.13
2023-02-25T02:23:16.866Z,3.16
2023-02-25T02:24:16.353Z,3.16
2023-02-25T02:25:16.851Z,3.12
2023-02-25T02:26:16.357Z,3.10
2023-02-25T02:27:16.861Z,3.10
2023-02-25T02:28:16.368Z,3.13
2023-02-25T02:29:17.077Z,3.10
2023-02-25T02:30:16.574Z,3.13
2023-02-25T02:31:17.158Z,3.13
2023-02-25T02:32:16.889Z,3.12
2023-02-25T02:33:16.602Z,3.12
2023-02-25T02:34:17.090Z,3.15
2023-02-25T02:35:16.583Z,3.15
2023-02-25T02:36:17.096Z,3.17
2023-02-25T02:37:16.627Z,3.17
2023-02-25T02:38:17.123Z,3.19
2023-02-25T02:39:16.651Z,3.16
2023-02-25T02:40:17.151Z,3.22
2023-02-25T02:41:16.655Z,3.19
2023-02-25T02:42:17.293Z,3.22
2023-02-25T02:43:16.782Z,3.15
2023-02-25T02:44:17.272Z,3.16
2023-02-25T02:45:16.768Z,3.15
2023-02-25T02:46:17.269Z,3.15
2023-02-25T02:47:16.748Z,3.16
2023-02-25T02:48:17.230Z,3.16
2023-02-25T02:49:16.739Z,3.19
2023-02-25T02:50:17.237Z,3.17
2023-02-25T02:51:16.755Z,3.19
2023-02-25T02:52:16.374Z,3.19
2023-02-25T02:53:16.869Z,3.16
2023-02-25T02:54:16.388Z,3.19
2023-02-25T02:55:16.888Z,3.17
2023-02-25T02:56:16.414Z,3.17
2023-02-25T02:57:16.895Z,3.19
2023-02-25T02:58:16.387Z,3.17
2023-02-25T02:59:16.953Z,3.20
2023-02-25T03:00:16.601Z,3.22
2023-02-25T03:01:17.184Z,3.24
2023-02-25T03:02:16.643Z,3.27
2023-02-25T03:03:17.133Z,3.24
2023-02-25T03:04:16.700Z,3.27
2023-02-25T03:05:16.336Z,3.27
2023-02-25T03:06:16.830Z,3.26
2023-02-25T03:07:16.335Z,3.30
2023-02-25T03:08:16.898Z,3.26
2023-02-25T03:09:16.408Z,3.27
2023-02-25T03:10:16.433Z,3.23
2023-02-25T03:11:16.912Z,3.24
2023-02-25T03:12:16.345Z,3.24
2023-02-25T03:13:16.844Z,3.23
2023-02-25T03:14:16.365Z,3.26
2023-02-25T03:15:16.895Z,3.26
2023-02-25T03:16:16.487Z,3.28
2023-02-25T03:17:17.040Z,3.26
2023-02-25T03:18:16.634Z,3.28
2023-02-25T03:19:17.176Z,3.28
2023-02-25T03:20:16.677Z,3.26
2023-02-25T03:21:17.176Z,3.28
2023-02-25T03:22:17.111Z,3.26
2023-02-25T03:23:16.754Z,3.24
2023-02-25T03:24:17.291Z,3.24
2023-02-25T03:25:16.818Z,3.28
2023-02-25T03:26:17.289Z,3.28
2023-02-25T03:27:16.781Z,3.26
2023-02-25T03:28:17.251Z,3.28
2023-02-25T03:29:16.730Z,3.27
2023-02-25T03:30:17.246Z,3.28
2023-02-25T03:31:16.761Z,3.28
2023-02-25T03:32:16.573Z,3.28
2023-02-25T03:33:17.209Z,3.37
2023-02-25T03:34:16.706Z,3.36
2023-02-25T03:35:17.194Z,3.33
2023-02-25T03:36:16.682Z,3.33
2023-02-25T03:37:17.242Z,3.30
2023-02-25T03:38:16.748Z,3.33
2023-02-25T03:39:17.244Z,3.33
2023-02-25T03:40:16.731Z,3.33
2023-02-25T03:41:17.246Z,3.31
2023-02-25T03:42:16.457Z,3.24
2023-02-25T03:43:16.943Z,3.28
2023-02-25T03:44:16.481Z,3.31
2023-02-25T03:45:16.986Z,3.30
2023-02-25T03:46:16.590Z,3.30
2023-02-25T03:47:17.228Z,3.31
2023-02-25T03:48:16.741Z,3.27
2023-02-25T03:49:17.249Z,3.27
2023-02-25T03:50:17.158Z,3.26
2023-02-25T03:51:16.673Z,3.26
2023-02-25T03:52:16.986Z,3.28
2023-02-25T03:53:16.502Z,3.27
2023-02-25T03:54:17.017Z,3.26
2023-02-25T03:55:16.516Z,3.24
2023-02-25T03:56:17.018Z,3.22
2023-02-25T03:57:16.505Z,3.19
2023-02-25T03:58:17.002Z,3.19
2023-02-25T03:59:16.501Z,3.19
2023-02-25T04:00:16.999Z,3.19
2023-02-25T04:01:17.266Z,3.27
2023-02-25T04:02:17.215Z,3.22
2023-02-25T04:03:16.852Z,3.20
2023-02-25T04:04:16.369Z,3.19
2023-02-25T04:05:16.909Z,3.19
2023-02-25T04:06:16.427Z,3.22
2023-02-25T04:07:16.915Z,3.19
2023-02-25T04:08:16.454Z,3.17
2023-02-25T04:09:16.995Z,3.20
2023-02-25T04:10:16.504Z,3.20
2023-02-25T04:11:17.046Z,3.19
2023-02-25T04:12:16.589Z,3.17
2023-02-25T04:13:17.127Z,3.16
2023-02-25T04:14:16.646Z,3.12
2023-02-25T04:15:17.166Z,3.15
2023-02-25T04:16:16.686Z,3.20
2023-02-25T04:17:17.199Z,3.19
2023-02-25T04:18:16.689Z,3.13
2023-02-25T04:19:17.176Z,3.17
2023-02-25T04:20:16.680Z,3.13
2023-02-25T04:21:16.461Z,3.09
2023-02-25T04:22:17.038Z,3.10
2023-02-25T04:23:16.560Z,3.09
2023-02-25T04:24:17.128Z,3.12
2023-02-25T04:25:16.606Z,3.12
2023-02-25T04:26:17.099Z,3.09
2023-02-25T04:27:16.601Z,3.10
2023-02-25T04:28:17.115Z,3.09
2023-02-25T04:29:16.658Z,3.09
2023-02-25T04:30:17.174Z,3.12
2023-02-25T04:31:16.786Z,3.10
2023-02-25T04:32:16.759Z,3.15
2023-02-25T04:33:16.442Z,3.15
2023-02-25T04:34:16.912Z,3.12
2023-02-25T04:35:16.387Z,3.09
2023-02-25T04:36:16.873Z,3.10
2023-02-25T04:37:16.360Z,3.10
2023-02-25T04:38:16.869Z,3.12
2023-02-25T04:39:16.355Z,3.12
2023-02-25T04:40:16.850Z,3.15
2023-02-25T04:41:16.353Z,3.15
2023-02-25T04:42:17.062Z,3.13
2023-02-25T04:43:16.545Z,3.26
2023-02-25T04:44:17.145Z,3.17
2023-02-25T04:45:16.633Z,3.15
2023-02-25T04:46:17.182Z,3.17
2023-02-25T04:47:16.791Z,3.16
2023-02-25T04:48:17.263Z,3.17
2023-02-25T04:49:16.795Z,3.19
2023-02-25T04:50:17.293Z,3.17
2023-02-25T04:51:16.792Z,3.20
2023-02-25T04:52:16.648Z,3.16
2023-02-25T04:53:17.184Z,3.15
2023-02-25T04:54:16.691Z,3.12
2023-02-25T04:55:17.221Z,3.12
2023-02-25T04:56:16.733Z,3.12
2023-02-25T04:57:17.467Z,3.12
2023-02-25T04:58:16.964Z,3.16
2023-02-25T04:59:16.471Z,3.15
2023-02-25T05:00:16.994Z,3.13
2023-02-25T05:01:16.542Z,3.23
2023-02-25T05:02:16.824Z,3.23
2023-02-25T05:03:17.299Z,3.19
2023-02-25T05:04:16.783Z,3.19
2023-02-25T05:05:17.267Z,3.19
2023-02-25T05:06:16.816Z,3.19
2023-02-25T05:07:16.307Z,3.22
2023-02-25T05:08:16.768Z,3.19
2023-02-25T05:09:17.271Z,3.20
2023-02-25T05:10:16.771Z,3.22
2023-02-25T05:11:17.315Z,3.22
2023-02-25T05:12:17.024Z,3.20
2023-02-25T05:13:16.534Z,3.23
2023-02-25T05:14:17.055Z,3.20
2023-02-25T05:15:16.559Z,3.19
2023-02-25T05:16:17.065Z,3.22
2023-02-25T05:17:16.594Z,3.24
2023-02-25T05:18:17.104Z,3.19
2023-02-25T05:19:16.645Z,3.19
2023-02-25T05:20:17.181Z,3.20
2023-02-25T05:21:16.830Z,3.20
2023-02-25T05:22:17.110Z,3.20
2023-02-25T05:23:16.627Z,3.22
2023-02-25T05:24:17.113Z,3.20
2023-02-25T05:25:16.601Z,3.15
2023-02-25T05:26:17.100Z,3.19
2023-02-25T05:27:16.622Z,3.15
2023-02-25T05:28:17.107Z,3.19
2023-02-25T05:29:16.609Z,3.19
2023-02-25T05:30:17.133Z,3.22
2023-02-25T05:31:16.769Z,3.19
2023-02-25T05:32:16.998Z,3.23
2023-02-25T05:33:16.726Z,3.22
2023-02-25T05:34:17.233Z,3.19
2023-02-25T05:35:16.754Z,3.20
2023-02-25T05:36:17.262Z,3.20
2023-02-25T05:37:16.765Z,3.22
2023-02-25T05:38:17.268Z,3.22
2023-02-25T05:39:16.762Z,3.22
2023-02-25T05:40:17.255Z,3.24
2023-02-25T05:41:16.768Z,3.23
2023-02-25T05:42:17.210Z,3.17
2023-02-25T05:43:16.767Z,3.19
2023-02-25T05:44:17.257Z,3.16
2023-02-25T05:45:16.905Z,3.16
2023-02-25T05:46:16.413Z,3.15
2023-02-25T05:47:16.936Z,3.17
2023-02-25T05:48:16.459Z,3.16
2023-02-25T05:49:16.945Z,3.13
2023-02-25T05:50:16.435Z,3.16
2023-02-25T05:51:16.908Z,3.13
2023-02-25T05:52:16.447Z,3.19
2023-02-25T05:53:16.969Z,3.19
2023-02-25T05:54:16.456Z,3.13
2023-02-25T05:55:16.984Z,3.19
2023-02-25T05:56:16.503Z,3.20
2023-02-25T05:57:17.000Z,3.20
2023-02-25T05:58:16.491Z,3.17
2023-02-25T05:59:17.015Z,3.19
2023-02-25T06:00:16.520Z,3.15
2023-02-25T06:01:17.033Z,3.13
2023-02-25T06:02:16.818Z,3.16
2023-02-25T06:03:16.469Z,3.12
2023-02-25T06:04:17.036Z,3.15
2023-02-25T06:05:16.551Z,3.16
2023-02-25T06:06:17.037Z,3.16
2023-02-25T06:07:16.523Z,3.16
2023-02-25T06:08:17.012Z,3.16
2023-02-25T06:09:16.511Z,3.17
2023-02-25T06:10:17.042Z,3.19
2023-02-25T06:11:16.561Z,3.15
2023-02-25T06:12:17.253Z,3.16
2023-02-25T06:13:16.736Z,3.24
2023-02-25T06:14:17.231Z,3.24
2023-02-25T06:15:16.728Z,3.20
2023-02-25T06:16:17.275Z,3.17
2023-02-25T06:17:16.910Z,3.16
2023-02-25T06:18:16.419Z,3.17
2023-02-25T06:19:16.905Z,3.16
2023-02-25T06:20:16.395Z,3.16
2023-02-25T06:21:16.889Z,3.15
2023-02-25T06:22:16.475Z,3.13
2023-02-25T06:23:16.972Z,3.15
2023-02-25T06:24:16.481Z,3.16
2023-02-25T06:25:16.991Z,3.16
2023-02-25T06:26:16.618Z,3.16
2023-02-25T06:27:17.105Z,3.17
2023-02-25T06:28:16.641Z,3.09
2023-02-25T06:29:17.139Z,3.07
2023-02-25T06:30:16.626Z,3.10
2023-02-25T06:31:17.164Z,3.07
2023-02-25T06:32:16.735Z,3.12
2023-02-25T06:33:16.560Z,3.12
2023-02-25T06:34:17.047Z,3.07
2023-02-25T06:35:16.638Z,3.07
2023-02-25T06:36:17.231Z,3.06
2023-02-25T06:37:16.780Z,3.12
2023-02-25T06:38:17.256Z,3.10
2023-02-25T06:39:16.740Z,3.13
2023-02-25T06:40:17.290Z,3.16
2023-02-25T06:41:16.824Z,3.19
2023-02-25T06:42:16.839Z,3.24
2023-02-25T06:43:16.315Z,3.23
2023-02-25T06:44:17.076Z,3.22
2023-02-25T06:45:16.545Z,3.17
2023-02-25T06:46:17.088Z,3.20
2023-02-25T06:47:16.685Z,3.24
2023-02-25T06:48:17.148Z,3.16
2023-02-25T06:49:16.629Z,3.16
2023-02-25T06:50:17.121Z,3.17
2023-02-25T06:51:16.620Z,3.15
2023-02-25T06:52:16.892Z,3.17
2023-02-25T06:53:16.395Z,3.13
2023-02-25T06:54:16.937Z,3.22
2023-02-25T06:55:16.457Z,3.22
2023-02-25T06:56:16.941Z,3.20
2023-02-25T06:57:16.429Z,3.20
2023-02-25T06:58:16.903Z,3.20
2023-02-25T06:59:16.426Z,3.19
2023-02-25T07:00:16.934Z,3.22
2023-02-25T07:01:16.463Z,3.22
2023-02-25T07:02:17.100Z,3.27
2023-02-25T07:03:16.613Z,3.26
2023-02-25T07:04:17.135Z,3.26
2023-02-25T07:05:16.765Z,3.31
2023-02-25T07:06:17.278Z,3.28
2023-02-25T07:07:16.805Z,3.24
2023-02-25T07:08:16.299Z,3.26
2023-02-25T07:09:16.788Z,3.31
2023-02-25T07:10:16.287Z,3.33
2023-02-25T07:11:16.780Z,3.30
2023-02-25T07:12:17.304Z,3.28
2023-02-25T07:13:16.805Z,3.34
2023-02-25T07:14:17.287Z,3.36
2023-02-25T07:15:16.789Z,3.28
2023-02-25T07:16:17.545Z,3.30
2023-02-25T07:17:17.169Z,3.28
2023-02-25T07:18:16.662Z,3.28
2023-02-25T07:19:17.187Z,3.30
2023-02-25T07:20:16.683Z,3.31
2023-02-25T07:21:17.188Z,3.30
2023-02-25T07:22:17.042Z,3.31
2023-02-25T07:23:16.507Z,3.28
2023-02-25T07:24:16.975Z,3.30
2023-02-25T07:25:16.503Z,3.33
2023-02-25T07:26:17.101Z,3.37
2023-02-25T07:27:16.595Z,3.34
2023-02-25T07:28:17.108Z,3.36
2023-02-25T07:29:16.636Z,3.39
2023-02-25T07:30:17.215Z,3.44
2023-02-25T07:31:16.842Z,3.50
2023-02-25T07:32:16.990Z,3.51
2023-02-25T07:33:16.869Z,3.51
2023-02-25T07:34:16.384Z,3.58
2023-02-25T07:35:16.896Z,3.54
2023-02-25T07:36:16.394Z,3.51
2023-02-25T07:37:16.955Z,3.57
2023-02-25T07:38:16.434Z,3.61
2023-02-25T07:39:16.955Z,3.64
2023-02-25T07:40:16.446Z,3.64
2023-02-25T07:41:16.968Z,3.64
2023-02-25T07:42:16.585Z,3.71
2023-02-25T07:43:17.060Z,3.72
2023-02-25T07:44:16.567Z,3.69
2023-02-25T07:45:17.069Z,3.78
2023-02-25T07:46:16.644Z,3.69
2023-02-25T07:47:17.233Z,3.67
2023-02-25T07:48:16.712Z,3.74
2023-02-25T07:49:17.206Z,3.71
2023-02-25T07:50:16.725Z,3.74
2023-02-25T07:51:17.268Z,3.78
2023-02-25T07:52:16.934Z,3.78
2023-02-25T07:53:16.440Z,3.78
2023-02-25T07:54:16.939Z,3.78
2023-02-25T07:55:16.446Z,3.78
2023-02-25T07:56:16.967Z,3.79
2023-02-25T07:57:16.492Z,3.86
2023-02-25T07:58:17.034Z,3.95
2023-02-25T07:59:16.535Z,3.93
2023-02-25T08:00:17.006Z,3.89
2023-02-25T08:01:16.480Z,3.97
2023-02-25T08:02:17.348Z,3.88
2023-02-25T08:03:16.986Z,3.88
2023-02-25T08:04:16.554Z,3.89
2023-02-25T08:05:17.097Z,3.95
2023-02-25T08:06:16.668Z,3.95
2023-02-25T08:07:17.163Z,4.09
2023-02-25T08:08:16.683Z,4.27
2023-02-25T08:09:17.184Z,4.18
2023-02-25T08:10:16.735Z,4.13
2023-02-25T08:11:17.263Z,4.10
2023-02-25T08:12:16.535Z,4.21
2023-02-25T08:13:17.074Z,4.21
2023-02-25T08:14:16.590Z,4.13
2023-02-25T08:15:17.110Z,4.21
2023-02-25T08:16:16.691Z,4.24
2023-02-25T08:17:16.333Z,4.27
2023-02-25T08:18:16.827Z,4.23
2023-02-25T08:19:16.304Z,4.21
2023-02-25T08:20:16.847Z,4.21
2023-02-25T08:21:16.326Z,4.23
2023-02-25T08:22:17.093Z,4.24
2023-02-25T08:23:16.603Z,4.25
2023-02-25T08:24:17.135Z,4.21
2023-02-25T08:25:16.633Z,4.25
2023-02-25T08:26:17.152Z,4.20
2023-02-25T08:27:16.634Z,4.48
2023-02-25T08:28:17.134Z,4.75
2023-02-25T08:29:16.621Z,4.75
2023-02-25T08:30:17.148Z,4.76
2023-02-25T08:31:16.694Z,4.72
2023-02-25T08:32:17.209Z,4.71
2023-02-25T08:33:17.018Z,4.85
2023-02-25T08:34:16.546Z,5.08
2023-02-25T08:35:17.029Z,5.04
2023-02-25T08:36:16.522Z,5.11
2023-02-25T08:37:17.012Z,5.25
2023-02-25T08:38:16.597Z,5.35
2023-02-25T08:39:17.117Z,5.32
2023-02-25T08:40:18.087Z,5.30
2023-02-25T08:41:16.349Z,5.21
2023-02-25T08:42:16.788Z,5.03
2023-02-25T08:43:17.291Z,5.25
2023-02-25T08:44:16.766Z,5.20
2023-02-25T08:45:17.269Z,5.10
2023-02-25T08:46:17.386Z,5.03
2023-02-25T08:47:16.350Z,5.13
2023-02-25T08:48:16.865Z,5.24
2023-02-25T08:49:16.359Z,5.37
2023-02-25T08:50:16.874Z,5.23
2023-02-25T08:51:16.359Z,5.18
2023-02-25T08:52:17.094Z,5.20
2023-02-25T08:53:16.605Z,5.20
2023-02-25T08:54:17.125Z,5.11
2023-02-25T08:55:16.655Z,5.13
2023-02-25T08:56:17.185Z,5.08
2023-02-25T08:57:16.668Z,4.99
2023-02-25T08:58:17.152Z,5.02
2023-02-25T08:59:16.677Z,4.99
2023-02-25T09:00:17.181Z,4.97
2023-02-25T09:01:16.703Z,4.95
2023-02-25T09:02:16.333Z,4.89
2023-02-25T09:03:16.860Z,4.90
2023-02-25T09:04:16.403Z,4.93
2023-02-25T09:05:18.941Z,4.97
2023-02-25T09:06:17.243Z,5.00
2023-02-25T09:07:16.714Z,4.92
2023-02-25T09:08:17.234Z,4.90
2023-02-25T09:09:16.743Z,4.89
2023-02-25T09:10:17.239Z,4.79
2023-02-25T09:11:16.769Z,4.75
2023-02-25T09:12:17.176Z,4.73
2023-02-25T09:13:16.657Z,4.69
2023-02-25T09:14:17.172Z,4.67
2023-02-25T09:15:16.660Z,4.67
2023-02-25T09:16:17.326Z,4.65
2023-02-25T09:17:17.309Z,4.71
2023-02-25T09:18:16.815Z,4.72
2023-02-25T09:19:16.386Z,4.78
2023-02-25T09:20:16.854Z,4.82
2023-02-25T09:21:16.402Z,4.90
2023-02-25T09:22:17.074Z,5.04
2023-02-25T09:23:16.600Z,5.07
2023-02-25T09:24:17.132Z,4.96
2023-02-25T09:25:16.644Z,4.85
2023-02-25T09:26:17.138Z,4.87
2023-02-25T09:27:16.632Z,4.89
2023-02-25T09:28:17.108Z,4.92
2023-02-25T09:29:16.606Z,4.86
2023-02-25T09:30:17.091Z,4.93
2023-02-25T09:31:16.638Z,4.87
2023-02-25T09:32:16.569Z,4.73
2023-02-25T09:33:17.198Z,4.71
2023-02-25T09:34:16.729Z,4.67
2023-02-25T09:35:17.254Z,4.64
2023-02-25T09:36:16.759Z,4.65
2023-02-25T09:37:17.312Z,4.65
2023-02-25T09:38:16.828Z,4.58
2023-02-25T09:39:16.371Z,4.55
2023-02-25T09:40:16.877Z,4.55
2023-02-25T09:41:16.404Z,4.45
2023-02-25T09:42:17.271Z,4.38
2023-02-25T09:43:16.864Z,4.40
2023-02-25T09:44:16.349Z,4.47
2023-02-25T09:45:16.873Z,4.45
2023-02-25T09:46:16.478Z,4.47
2023-02-25T09:47:17.199Z,4.42
2023-02-25T09:48:16.797Z,4.52
2023-02-25T09:49:17.289Z,4.44
2023-02-25T09:50:16.782Z,4.41
2023-02-25T09:51:16.550Z,4.44
2023-02-25T09:52:16.940Z,4.40
2023-02-25T09:53:16.482Z,4.42
2023-02-25T09:54:16.979Z,4.42
2023-02-25T09:55:16.471Z,4.38
2023-02-25T09:56:16.966Z,4.41
2023-02-25T09:57:16.450Z,4.35
2023-02-25T09:58:16.925Z,4.35
2023-02-25T09:59:16.431Z,4.40
2023-02-25T10:00:16.949Z,4.37
2023-02-25T10:01:16.464Z,4.40
2023-02-25T10:02:17.419Z,4.37
2023-02-25T10:03:17.258Z,4.28
2023-02-25T10:04:16.945Z,4.27
2023-02-25T10:05:16.455Z,4.31
2023-02-25T10:06:16.967Z,4.34
2023-02-25T10:07:16.454Z,4.33
2023-02-25T10:08:16.933Z,4.37
2023-02-25T10:09:16.419Z,4.41
2023-02-25T10:10:16.934Z,4.41
2023-02-25T10:11:16.438Z,4.41
2023-02-25T10:12:17.992Z,4.38
2023-02-25T10:13:16.752Z,4.34
2023-02-25T10:14:17.287Z,4.31
2023-02-25T10:15:16.791Z,4.31
2023-02-25T10:16:17.330Z,4.30
2023-02-25T10:17:16.958Z,4.35
2023-02-25T10:18:16.478Z,4.31
2023-02-25T10:19:17.009Z,4.30
2023-02-25T10:20:16.565Z,4.31
2023-02-25T10:21:17.068Z,4.35
2023-02-25T10:22:16.668Z,4.31
2023-02-25T10:23:17.154Z,4.33
2023-02-25T10:24:16.639Z,4.33
2023-02-25T10:25:17.119Z,4.38
2023-02-25T10:26:16.637Z,4.38
2023-02-25T10:27:17.125Z,4.41
2023-02-25T10:28:16.621Z,4.44
2023-02-25T10:29:17.134Z,4.50
2023-02-25T10:30:16.655Z,4.52
2023-02-25T10:31:17.210Z,4.52
2023-02-25T10:32:17.073Z,4.50
2023-02-25T10:33:17.106Z,4.57
2023-02-25T10:34:16.590Z,4.61
2023-02-25T10:35:17.108Z,4.59
2023-02-25T10:36:16.598Z,4.65
2023-02-25T10:37:17.060Z,4.72
2023-02-25T10:38:16.544Z,4.76
2023-02-25T10:39:17.026Z,5.06
2023-02-25T10:40:16.547Z,5.17
2023-02-25T10:41:17.036Z,5.23
2023-02-25T10:42:16.826Z,5.31
2023-02-25T10:43:16.394Z,5.38
2023-02-25T10:44:16.895Z,5.49
2023-02-25T10:45:16.416Z,5.49
2023-02-25T10:46:16.944Z,5.52
2023-02-25T10:47:16.536Z,5.68
2023-02-25T10:48:17.039Z,5.48
2023-02-25T10:49:16.643Z,5.38
2023-02-25T10:50:17.182Z,5.43
2023-02-25T10:51:16.724Z,5.42
2023-02-25T10:52:16.483Z,5.42
2023-02-25T10:53:16.989Z,5.32
2023-02-25T10:54:16.489Z,5.30
2023-02-25T10:55:17.006Z,5.42
2023-02-25T10:56:16.537Z,5.51
2023-02-25T10:57:17.045Z,5.57
2023-02-25T10:58:16.544Z,5.65
2023-02-25T10:59:17.052Z,5.69
2023-02-25T11:00:16.527Z,5.66
2023-02-25T11:01:17.053Z,5.65
2023-02-25T11:02:16.373Z,5.75
2023-02-25T11:03:16.934Z,5.63
2023-02-25T11:04:16.408Z,5.69
2023-02-25T11:05:16.882Z,5.63
2023-02-25T11:06:16.351Z,5.62
2023-02-25T11:07:16.843Z,5.73
2023-02-25T11:08:16.339Z,5.85
2023-02-25T11:09:16.841Z,5.83
2023-02-25T11:10:16.339Z,5.86
2023-02-25T11:11:16.843Z,5.73
2023-02-25T11:12:17.065Z,5.68
2023-02-25T11:13:16.607Z,5.69
2023-02-25T11:14:17.128Z,5.59
2023-02-25T11:15:16.694Z,5.57
2023-02-25T11:16:17.236Z,5.52
2023-02-25T11:17:16.845Z,5.46
2023-02-25T11:18:16.326Z,5.59
2023-02-25T11:19:16.867Z,5.55
2023-02-25T11:20:16.456Z,5.51
2023-02-25T11:21:16.976Z,5.48
2023-02-25T11:22:16.519Z,5.48
2023-02-25T11:23:17.022Z,5.48
2023-02-25T11:24:16.533Z,5.68
2023-02-25T11:25:17.057Z,5.85
2023-02-25T11:26:16.551Z,5.75
2023-02-25T11:27:17.081Z,5.53
2023-02-25T11:28:16.590Z,5.32
2023-02-25T11:29:17.081Z,5.30
2023-02-25T11:30:16.581Z,5.28
2023-02-25T11:31:17.170Z,5.13
2023-02-25T11:32:16.810Z,4.92
2023-02-25T11:33:16.558Z,4.92
2023-02-25T11:34:17.046Z,4.83
2023-02-25T11:35:16.533Z,4.79
2023-02-25T11:36:17.040Z,4.52
2023-02-25T11:37:16.532Z,4.37
2023-02-25T11:38:17.041Z,4.33
2023-02-25T11:39:16.580Z,4.37
2023-02-25T11:40:17.132Z,4.47
2023-02-25T11:41:16.643Z,4.50
2023-02-25T11:42:16.877Z,4.44
2023-02-25T11:43:16.398Z,4.41
2023-02-25T11:44:16.885Z,4.54
2023-02-25T11:45:16.401Z,4.76
2023-02-25T11:46:17.009Z,4.75
2023-02-25T11:47:16.603Z,4.80
2023-02-25T11:48:17.095Z,4.80
2023-02-25T11:49:16.600Z,4.83
2023-02-25T11:50:17.133Z,5.03
2023-02-25T11:51:16.742Z,5.35
2023-02-25T11:52:17.376Z,5.62
2023-02-25T11:53:17.012Z,5.66
2023-02-25T11:54:16.662Z,5.62
2023-02-25T11:55:17.184Z,5.57
2023-02-25T11:56:16.725Z,5.43
2023-02-25T11:57:17.266Z,5.46
2023-02-25T11:58:16.802Z,5.57
2023-02-25T11:59:17.283Z,5.61
2023-02-25T12:00:16.848Z,5.72
2023-02-25T12:01:16.358Z,5.57
2023-02-25T12:02:17.051Z,5.65
2023-02-25T12:03:16.558Z,5.76
2023-02-25T12:04:17.054Z,5.83
2023-02-25T12:05:16.630Z,5.77
2023-02-25T12:06:16.365Z,5.73
2023-02-25T12:07:16.896Z,5.77
2023-02-25T12:08:16.456Z,5.80
2023-02-25T12:09:16.940Z,5.89
2023-02-25T12:10:16.416Z,5.89
2023-02-25T12:11:16.909Z,5.94
2023-02-25T12:12:16.652Z,5.98
2023-02-25T12:13:17.185Z,5.94
2023-02-25T12:14:16.795Z,6.07
2023-02-25T12:15:17.334Z,6.10
2023-02-25T12:16:16.872Z,6.20
2023-02-25T12:17:16.457Z,6.24
2023-02-25T12:18:16.945Z,6.46
2023-02-25T12:19:16.399Z,6.55
2023-02-25T12:20:16.899Z,6.55
2023-02-25T12:21:16.388Z,6.53
2023-02-25T12:22:17.089Z,6.28
2023-02-25T12:23:16.576Z,6.24
2023-02-25T12:24:17.070Z,6.28
2023-02-25T12:25:16.553Z,6.35
2023-02-25T12:26:17.025Z,6.33
2023-02-25T12:27:16.533Z,6.12
2023-02-25T12:28:17.006Z,6.07
2023-02-25T12:29:16.499Z,5.94
2023-02-25T12:30:16.976Z,5.30
2023-02-25T12:31:16.503Z,4.76
2023-02-25T12:32:17.270Z,4.40
2023-02-25T12:33:16.903Z,4.18
2023-02-25T12:34:16.393Z,4.17
2023-02-25T12:35:16.922Z,4.16
2023-02-25T12:36:16.394Z,4.00
2023-02-25T12:37:16.914Z,3.93
2023-02-25T12:38:16.414Z,4.00
2023-02-25T12:39:16.902Z,3.96
2023-02-25T12:40:16.398Z,4.02
2023-02-25T12:41:16.916Z,4.09
2023-02-25T12:42:16.339Z,4.24
2023-02-25T12:43:16.854Z,4.24
2023-02-25T12:44:16.329Z,4.24
2023-02-25T12:45:16.835Z,4.16
2023-02-25T12:46:16.353Z,4.12
2023-02-25T12:47:16.882Z,4.09
2023-02-25T12:48:16.420Z,3.97
2023-02-25T12:49:16.939Z,3.99
2023-02-25T12:50:16.466Z,4.10
2023-02-25T12:51:16.978Z,4.21
2023-02-25T12:52:17.549Z,4.35
2023-02-25T12:53:17.109Z,4.41
2023-02-25T12:54:16.593Z,4.45
2023-02-25T12:55:17.071Z,4.65
2023-02-25T12:56:16.544Z,4.62
2023-02-25T12:57:17.040Z,4.62
2023-02-25T12:58:16.708Z,4.78
2023-02-25T12:59:17.239Z,4.89
2023-02-25T13:00:16.746Z,5.03
2023-02-25T13:01:17.273Z,5.00
2023-02-25T13:02:16.783Z,4.75
2023-02-25T13:03:17.276Z,4.67
2023-02-25T13:04:16.828Z,4.58
2023-02-25T13:05:16.455Z,4.45
2023-02-25T13:06:16.940Z,4.34
2023-02-25T13:07:16.419Z,4.24
2023-02-25T13:08:16.953Z,4.13
2023-02-25T13:09:16.450Z,4.06
2023-02-25T13:10:16.924Z,3.96
2023-02-25T13:11:16.429Z,3.85
2023-02-25T13:12:16.406Z,3.71
2023-02-25T13:13:16.885Z,3.74
2023-02-25T13:14:16.392Z,3.68
2023-02-25T13:15:16.868Z,3.62
2023-02-25T13:16:16.423Z,3.53
2023-02-25T13:17:17.019Z,3.49
2023-02-25T13:18:16.565Z,3.46